Map

Track Data

SID SEASON NUMBER BASIN SUBBASIN NAME ISO_TIME NATURE LAT LON WMO_WIND WMO_PRES WMO_AGENCY TRACK_TYPE DIST2LAND LANDFALL IFLAG USA_AGENCY USA_ATCF_ID USA_LAT USA_LON USA_RECORD USA_STATUS USA_WIND USA_PRES USA_SSHS USA_R34_NE USA_R34_SE USA_R34_SW USA_R34_NW USA_R50_NE USA_R50_SE USA_R50_SW USA_R50_NW USA_R64_NE USA_R64_SE USA_R64_SW USA_R64_NW USA_POCI USA_ROCI USA_RMW USA_EYE TOKYO_LAT TOKYO_LON TOKYO_GRADE TOKYO_WIND TOKYO_PRES TOKYO_R50_DIR TOKYO_R50_LONG TOKYO_R50_SHORT TOKYO_R30_DIR TOKYO_R30_LONG TOKYO_R30_SHORT TOKYO_LAND CMA_LAT CMA_LON CMA_CAT CMA_WIND CMA_PRES HKO_LAT HKO_LON HKO_CAT HKO_WIND HKO_PRES NEWDELHI_LAT NEWDELHI_LON NEWDELHI_GRADE NEWDELHI_WIND NEWDELHI_PRES NEWDELHI_CI NEWDELHI_DP NEWDELHI_POCI REUNION_LAT REUNION_LON REUNION_TYPE REUNION_WIND REUNION_PRES REUNION_TNUM REUNION_CI REUNION_RMW REUNION_R34_NE REUNION_R34_SE REUNION_R34_SW REUNION_R34_NW REUNION_R50_NE REUNION_R50_SE REUNION_R50_SW REUNION_R50_NW REUNION_R64_NE REUNION_R64_SE REUNION_R64_SW REUNION_R64_NW BOM_LAT BOM_LON BOM_TYPE BOM_WIND BOM_PRES BOM_TNUM BOM_CI BOM_RMW BOM_R34_NE BOM_R34_SE BOM_R34_SW BOM_R34_NW BOM_R50_NE BOM_R50_SE BOM_R50_SW BOM_R50_NW BOM_R64_NE BOM_R64_SE BOM_R64_SW BOM_R64_NW BOM_ROCI BOM_POCI BOM_EYE BOM_POS_METHOD BOM_PRES_METHOD NADI_LAT NADI_LON NADI_CAT NADI_WIND NADI_PRES WELLINGTON_LAT WELLINGTON_LON WELLINGTON_WIND WELLINGTON_PRES DS824_LAT DS824_LON DS824_STAGE DS824_WIND DS824_PRES TD9636_LAT TD9636_LON TD9636_STAGE TD9636_WIND TD9636_PRES TD9635_LAT TD9635_LON TD9635_WIND TD9635_PRES TD9635_ROCI NEUMANN_LAT NEUMANN_LON NEUMANN_CLASS NEUMANN_WIND NEUMANN_PRES MLC_LAT MLC_LON MLC_CLASS MLC_WIND MLC_PRES USA_GUST BOM_GUST BOM_GUST_PER REUNION_GUST REUNION_GUST_PER USA_SEAHGT USA_SEARAD_NE USA_SEARAD_SE USA_SEARAD_SW USA_SEARAD_NW STORM_SPEED STORM_DIR
1974290S09089 1975 119 SI MM MARCIA 1974-10-17 00:00:00 TS -8.80000 88.8000 20 1006 bom main 1372 1354 ______O__O__O_ -1 -8.80000 88.8000 20 20 1006 1.00000 -8.80000 88.8000 TC 15 1006 -8.80000 88.8000 TC 15 1006 3 90
1974290S09089 1975 119 SI MM MARCIA 1974-10-17 03:00:00 TS -8.80002 88.9750 20 1006 bom main 1354 1345 ______O__P__P_ -1 -8.80000 89.0000 20 20 1006 1.00000 1.00000 -8.80002 88.9625 TC 15 1006 -8.80002 88.9625 TC 15 1006 3 90
1974290S09089 1975 119 SI MM MARCIA 1974-10-17 06:00:00 TS -8.80000 89.1000 20 1006 bom main 1345 1336 ______O__O__O_ -1 -8.80000 89.1000 20 20 1006 1.00000 -8.80000 89.1000 TC 15 1006 -8.80000 89.1000 TC 15 1006 2 90
1974290S09089 1975 119 SI MM MARCIA 1974-10-17 09:00:00 TS -8.79999 89.2000 20 1005 bom main 1336 1328 ______O__P__P_ -1 -8.80000 89.2000 20 20 1005 1.00000 -8.79998 89.2000 TC 17 1005 -8.79998 89.2000 TC 17 1005 2 90
1974290S09089 1975 119 SI MM MARCIA 1974-10-17 12:00:00 TS -8.80000 89.3000 20 1005 bom main 1328 1319 ______O__O__O_ -1 -8.80000 89.3000 20 20 1005 1.00000 -8.80000 89.3000 TC 20 1005 -8.80000 89.3000 TC 20 1005 2 89
1974290S09089 1975 119 SI MM MARCIA 1974-10-17 15:00:00 TS -8.79501 89.4333 25 1004 bom main 1319 1301 ______O__P__P_ -1 -8.80000 89.4000 20 25 1004 1.50000 -8.79251 89.4500 TC 20 1004 -8.79251 89.4500 TC 20 1004 3 90
1974290S09089 1975 119 SI MM MARCIA 1974-10-17 18:00:00 TS -8.80000 89.6000 25 1004 bom main 1301 1292 ______O__O__O_ -1 -8.80000 89.6000 20 25 1004 1.50000 -8.80000 89.6000 TC 20 1004 -8.80000 89.6000 TC 20 1004 3 103
1974290S09089 1975 119 SI MM MARCIA 1974-10-17 21:00:00 TS -8.85164 89.6900 25 1003 bom main 1299 1291 ______O__P__P_ -1 -8.90000 89.7000 20 25 1003 1.50000 -8.82746 89.6850 TC 22 1003 -8.82746 89.6850 TC 22 1003 2 117
1974290S09089 1975 119 SI MM MARCIA 1974-10-18 00:00:00 TS -8.90000 89.8000 25 1003 bom main 1291 1280 ______O__O__O_ -1 -8.90000 89.8000 20 25 1003 1.50000 -8.90000 89.8000 TC 25 1003 -8.90000 89.8000 TC 25 1003 4 115
1974290S09089 1975 119 SI WA MARCIA 1974-10-18 03:00:00 TS -9.01833 90.0467 25 1002 bom main 1280 1270 ______O__P__P_ -1 -9.00000 90.1000 20 25 1002 2.00000 2.00000 -9.02750 90.0200 TC 27 1002 -9.02750 90.0200 TC 25 1002 6 121
1974290S09089 1975 119 SI WA MARCIA 1974-10-18 06:00:00 TS -9.20000 90.3000 30 1001 bom main 1270 1260 ______O__O__O_ -1 -9.20000 90.3000 20 30 1001 2.00000 -9.20000 90.3000 TC 30 1001 -9.20000 90.3000 TC 25 1001 7 125
1974290S09089 1975 119 SI WA MARCIA 1974-10-18 09:00:00 TS -9.40002 90.6050 35 1000 bom main 1260 1251 ______O__P__P_ -1 -9.40000 90.6000 30 35 1000 2.00000 -9.40003 90.6075 TC 32 999 -9.40003 90.6075 TC 30 999 7 124
1974290S09089 1975 119 SI WA MARCIA 1974-10-18 12:00:00 TS -9.60000 90.9000 35 998 bom main 1251 1244 ______O__O__O_ -1 -9.60000 90.9000 30 35 998 2.50000 -9.60000 90.9000 TC 35 998 -9.60000 90.9000 TC 35 998 6 125
1974290S09089 1975 119 SI WA MARCIA 1974-10-18 15:00:00 TS -9.76162 91.1334 35 997 bom main 1252 1244 ______O__P__P_ -1 -9.80000 91.2000 30 35 997 2.50000 -9.74243 91.1001 TC 35 997 -9.74243 91.1001 TC 35 997 5 127
1974290S09089 1975 119 SI WA MARCIA 1974-10-18 18:00:00 TS -9.90000 91.3000 35 996 bom main 1245 1238 ______O__O__O_ -1 -9.90000 91.3000 30 35 996 2.50000 -9.90000 91.3000 TC 35 996 -9.90000 91.3000 TC 35 996 6 129
1974290S09089 1975 119 SI WA MARCIA 1974-10-18 21:00:00 TS -10.1434 91.6049 35 995 bom main 1240 1240 ______O__P__P_ -1 -10.1000 91.6000 30 35 995 3.00000 -10.1651 91.6074 TC 37 995 -10.1651 91.6074 TC 37 995 8 130
1974290S09089 1975 119 SI WA MARCIA 1974-10-19 00:00:00 TS -10.4000 91.9000 40 994 bom main 1244 1237 ______O__O__O_ -1 -10.4000 91.9000 30 40 994 3.00000 -10.4000 91.9000 TC 40 994 -10.4000 91.9000 TC 40 994 5 127
1974290S09089 1975 119 SI WA MARCIA 1974-10-19 03:00:00 TS -10.4716 92.0484 40 994 bom main 1246 1233 ______O__P__P_ -1 -10.5000 92.0000 30 40 994 3.00000 3.00000 -10.4574 92.0726 TC 40 993 -10.4574 92.0726 TC 40 993 3 109
1974290S09089 1975 119 SI WA MARCIA 1974-10-19 06:00:00 TS -10.5000 92.2000 40 993 bom main 1233 1226 ______O__O__O_ -1 -10.5000 92.2000 30 40 993 3.00000 -10.5000 92.2000 TC 40 993 -10.5000 92.2000 TC 40 993 4 124
1974290S09089 1975 119 SI WA MARCIA 1974-10-19 09:00:00 TS -10.6850 92.3717 40 995 bom main 1238 1238 ______O__P__P_ -1 -10.7000 92.4000 30 40 995 3.00000 -10.6775 92.3575 TC 42 992 -10.6775 92.3575 TC 42 992 5 144
1974290S09089 1975 119 SI WA MARCIA 1974-10-19 12:00:00 TS -10.9000 92.5000 45 991 bom main 1250 1250 ______O__O__O_ -1 -10.9000 92.5000 30 45 991 3.00000 -10.9000 92.5000 TC 45 991 -10.9000 92.5000 TC 45 991 5 152
1974290S09089 1975 119 SI WA MARCIA 1974-10-19 15:00:00 TS -11.1100 92.6000 45 990 bom main 1262 1262 ______O__P__P_ -1 -11.1000 92.6000 30 45 990 3.00000 -11.1150 92.6000 TC 47 990 -11.1150 92.6000 TC 47 990 4 154
1974290S09089 1975 119 SI WA MARCIA 1974-10-19 18:00:00 TS -11.3000 92.7000 50 989 bom main 1275 1275 ______O__O__O_ -1 -11.3000 92.7000 30 50 989 3.50000 -11.3000 92.7000 TC 50 989 -11.3000 92.7000 TC 50 989 4 143
1974290S09089 1975 119 SI WA MARCIA 1974-10-19 21:00:00 TS -11.4100 92.8333 50 988 bom main 1278 1272 ______O__P__P_ -1 -11.4000 92.8000 30 50 988 3.50000 -11.4150 92.8500 TC 50 988 -11.4150 92.8500 TC 50 988 4 124
1974290S09089 1975 119 SI WA MARCIA 1974-10-20 00:00:00 TS -11.5000 93.0000 50 988 bom main 1276 1271 ______O__O__O_ -1 -11.5000 93.0000 30 50 988 3.50000 -11.5000 93.0000 TC 50 988 -11.5000 93.0000 TC 50 988 3 125
1974290S09089 1975 119 SI WA MARCIA 1974-10-20 03:00:00 TS -11.5950 93.1000 50 989 bom main 1280 1275 ______O__P__P_ -1 -11.6000 93.1000 30 50 989 3.50000 3.50000 -11.5925 93.1000 TC 50 988 -11.5925 93.1000 TC 50 988 3 135
1974290S09089 1975 119 SI WA MARCIA 1974-10-20 06:00:00 TS -11.7000 93.2000 50 989 bom main 1284 1284 ______O__O__O_ -1 -11.7000 93.2000 30 50 989 3.50000 -11.7000 93.2000 TC 50 989 -11.7000 93.2000 TC 50 989 4 138
1974290S09089 1975 119 SI WA MARCIA 1974-10-20 09:00:00 TS -11.8567 93.3383 50 990 bom main 1299 1288 ______O__P__P_ -1 -11.9000 93.3000 30 50 990 3.50000 -11.8350 93.3575 TC 47 990 -11.8350 93.3575 TC 47 990 4 136
1974290S09089 1975 119 SI WA MARCIA 1974-10-20 12:00:00 TS -12.0000 93.5000 45 992 bom main 1298 1298 ______O__O__O_ -1 -12.0000 93.5000 30 45 992 3.00000 -12.0000 93.5000 TC 45 992 -12.0000 93.5000 TC 45 992 4 151
1974290S09089 1975 119 SI WA MARCIA 1974-10-20 15:00:00 TS -12.2050 93.5384 35 996 bom main 1318 1318 ______O__P__P_ -1 -12.2000 93.5000 30 35 996 3.00000 -12.2075 93.5575 TC 40 994 -12.2075 93.5575 TC 40 994 4 167
1974290S09089 1975 119 SI WA MARCIA 1974-10-20 18:00:00 TS -12.4000 93.6000 30 997 bom main 1333 1333 ______O__O__O_ -1 -12.4000 93.6000 20 30 997 2.50000 -12.4000 93.6000 TC 35 997 -12.4000 93.6000 TC 35 997 3 155
1974290S09089 1975 119 SI WA MARCIA 1974-10-20 21:00:00 TS -12.4900 93.6751 30 998 bom main 1338 1338 ______O__P__P_ -1 -12.5000 93.7000 20 30 998 2.50000 -12.4849 93.6626 TC 32 998 -12.4849 93.6626 TC 32 998 3 136
1974290S09089 1975 119 SI WA MARCIA 1974-10-21 00:00:00 TS -12.6000 93.8000 30 999 bom main 1342 1342 ______O__O__O_ -1 -12.6000 93.8000 20 30 999 2.50000 -12.6000 93.8000 TC 30 999 -12.6000 93.8000 TC 30 999 5 134
1974290S09089 1975 119 SI WA MARCIA 1974-10-21 03:00:00 TS -12.8517 94.0615 30 999 bom main 1344 1336 ______O__P__P_ -1 -12.8000 94.0000 20 30 999 2.50000 2.50000 -12.8776 94.0923 TC 30 999 -12.8776 94.0923 TC 30 999 8 136
1974290S09089 1975 119 SI WA MARCIA 1974-10-21 06:00:00 TS -13.2000 94.4000 30 999 bom main 1347 1347 ______O__O__O_ -1 -13.2000 94.4000 20 30 999 2.50000 -13.2000 94.4000 TC 30 999 -13.2000 94.4000 TC 30 999 8 141
1974290S09089 1975 119 SI WA MARCIA 1974-10-21 09:00:00 TS -13.4616 94.5668 30 999 bom main 1358 1358 ______O__P__P_ -1 -13.5000 94.6000 20 30 999 2.50000 -13.4424 94.5502 TC 30 999 -13.4424 94.5502 TC 30 999 6 150
1974290S09089 1975 119 SI WA MARCIA 1974-10-21 12:00:00 TS -13.7000 94.7000 30 1000 bom main 1368 1368 ______O__O__O_ -1 -13.7000 94.7000 20 30 1000 2.50000 -13.7000 94.7000 TC 30 1000 -13.7000 94.7000 TC 30 1000 7 144
1974290S09089 1975 119 SI WA MARCIA 1974-10-21 15:00:00 TS -14.0517 95.0049 25 1002 bom main 1380 1369 ______O__P__P_ -1 -14.1000 95.0000 20 25 1002 2.00000 -14.0276 95.0073 TC 27 1001 -14.0276 95.0073 TC 27 1001 9 140
1974290S09089 1975 119 SI WA MARCIA 1974-10-21 18:00:00 TS -14.4000 95.3000 25 1002 bom main 1376 1374 ______O__O__O_ -1 -14.4000 95.3000 20 25 1002 2.00000 -14.4000 95.3000 TC 25 1002 -14.4000 95.3000 TC 25 1002 9 149
1974290S09089 1975 119 SI WA MARCIA 1974-10-21 21:00:00 TS -14.7816 95.4500 25 1001 bom main 1395 1387 ______O__P__P_ -1 -14.7000 95.4000 20 25 1001 2.00000 -14.8224 95.4750 TC 25 1002 -14.8224 95.4750 TC 25 1002 8 166
1974290S09089 1975 119 SI WA MARCIA 1974-10-22 00:00:00 TS -15.2000 95.5000 25 1002 bom main 1416 1416 ______O__O__O_ -1 -15.2000 95.5000 20 25 1002 2.00000 -15.2000 95.5000 TC 25 1002 -15.2000 95.5000 TC 25 1002 7 186
1974290S09089 1975 119 SI WA MARCIA 1974-10-22 03:00:00 TS -15.4300 95.3784 25 1002 bom main 1438 1438 ______O__P__P_ -1 -15.4000 95.4000 20 25 1002 1.50000 1.50000 -15.4450 95.3676 TC 27 1001 -15.4450 95.3676 TC 25 1001 6 224
1974290S09089 1975 119 SI WA MARCIA 1974-10-22 06:00:00 TS -15.6000 95.1000 25 1001 bom main 1477 1477 ______O__O__O_ -1 -15.6000 95.1000 20 25 1001 1.50000 -15.6000 95.1000 TC 30 1001 -15.6000 95.1000 TC 25 1001 7 245
1974290S09089 1975 119 SI WA MARCIA 1974-10-22 09:00:00 TS -15.7150 94.7583 25 1001 bom main 1509 1509 ______O__P__P_ -1 -15.7000 94.7000 20 25 1001 1.50000 -15.7225 94.7875 TC 27 1001 -15.7225 94.7875 TC 25 1001 7 253
1974290S09089 1975 119 SI WA MARCIA 1974-10-22 12:00:00 TS -15.8000 94.4000 25 1002 bom main 1549 1549 ______O__O__O_ -1 -15.8000 94.4000 20 25 1002 1.50000 -15.8000 94.4000 TC 25 1002 -15.8000 94.4000 TC 25 1002 8 258
1974290S09089 1975 119 SI WA MARCIA 1974-10-22 15:00:00 TS -15.8717 93.9716 25 1002 bom main 1589 1589 ______O__P__P_ -1 -15.9000 94.0000 20 25 1002 1.50000 -15.8575 93.9575 TC 25 1002 -15.8575 93.9575 TC 25 1002 9 263
1974290S09089 1975 119 SI WA MARCIA 1974-10-22 18:00:00 TS -15.9000 93.5000 25 1003 bom main 1632 1632 ______O__O__O_ -1 -15.9000 93.5000 20 25 1003 1.50000 -15.9000 93.5000 TC 25 1003 -15.9000 93.5000 TC 25 1003 8 265
1974290S09089 1975 119 SI WA MARCIA 1974-10-22 21:00:00 TS -15.9383 93.1234 25 1003 bom main 1666 1666 ______O__P__P_ -1 -15.9000 93.2000 20 25 1003 1.50000 -15.9574 93.0850 TC 22 1003 -15.9574 93.0850 TC 22 1003 8 263
1974290S09089 1975 119 SI WA MARCIA 1974-10-23 00:00:00 TS -16.0000 92.7000 25 1004 bom main 1703 1703 ______O__O__O_ -1 -16.0000 92.7000 20 25 1004 1.50000 -16.0000 92.7000 TC 20 1004 -16.0000 92.7000 TC 20 1004 7 266
1974290S09089 1975 119 SI WA MARCIA 1974-10-23 03:00:00 TS -15.9899 92.3666 25 1004 bom main 1725 1725 ______O__P__P_ -1 -16.0000 92.4000 20 25 1004 1.50000 1.50000 -15.9849 92.3498 TC 20 1004 -15.9849 92.3498 TC 20 1004 7 270
1974290S09089 1975 119 SI WA MARCIA 1974-10-23 06:00:00 TS -16.0000 92.0000 25 1004 bom main 1753 1753 ______O__O__O_ -1 -16.0000 92.0000 20 25 1004 1.50000 -16.0000 92.0000 TC 20 1004 -16.0000 92.0000 TC 20 1004 7 260
1974290S09089 1975 119 SI WA MARCIA 1974-10-23 09:00:00 TS -16.1233 91.6051 20 1005 bom main 1790 1790 ______O__P__P_ -1 -16.1000 91.6000 20 20 1005 1.00000 -16.1350 91.6076 TC 20 1004 -16.1350 91.6076 TC 20 1004 8 249
1974290S09089 1975 119 SI WA MARCIA 1974-10-23 12:00:00 TS -16.3000 91.2000 20 1005 bom main 1835 1835 ______O__O__O_ -1 -16.3000 91.2000 20 20 1005 1.00000 -16.3000 91.2000 TC 20 1005 -16.3000 91.2000 TC 20 1005 9 252
1974290S09089 1975 119 SI WA MARCIA 1974-10-23 15:00:00 TS -16.3999 90.7432 20 1006 bom main 1875 1875 ______O__P__P_ -1 -16.4000 90.6000 20 20 1006 1.00000 -16.3998 90.8148 TC 17 1006 -16.3998 90.8148 TC 17 1006 8 255
1974290S09089 1975 119 SI WA MARCIA 1974-10-23 18:00:00 TS -16.5000 90.4000 20 1007 bom main 1901 1901 ______O__O__O_ -1 -16.5000 90.4000 20 20 1007 1.00000 -16.5000 90.4000 TC 15 1007 -16.5000 90.4000 TC 15 1007 8 254
1974290S09089 1975 119 SI MM MARCIA 1974-10-23 21:00:00 TS -16.6334 89.9001 20 1007 bom main 1938 1938 ______O__P__P_ -1 -16.6000 89.9000 20 20 1007 1.00000 -16.6501 89.9001 TC 15 1007 -16.6501 89.9001 TC 15 1007 10 253
1974290S09089 1975 119 SI MM MARCIA 1974-10-24 00:00:00 TS -16.8000 89.4000 20 1008 bom main 1985 1985 ______O__O__O_ -1 -16.8000 89.4000 20 20 1008 1.00000 -16.8000 89.4000 TC 15 1008 -16.8000 89.4000 TC 15 1008 9 250
1974290S09089 1975 119 SI MM MARCIA 1974-10-24 03:00:00 TS -16.9482 88.9950 20 1008 bom main 2018 2018 ______O__P__P_ -1 -17.0000 89.0000 20 20 1008 1.00000 -16.9223 88.9925 TC 15 1008 -16.9223 88.9925 TC 15 1008 8 255
1974290S09089 1975 119 SI MM MARCIA 1974-10-24 06:00:00 TS -17.0000 88.6000 20 1008 bom main 2051 2051 ______O__O__O_ -1 -17.0000 88.6000 20 20 1008 1.00000 -17.0000 88.6000 TC 15 1008 -17.0000 88.6000 TC 15 1008 8 263
1974290S09089 1975 119 SI MM MARCIA 1974-10-24 09:00:00 TS -17.0434 88.1949 20 1009 bom main 2075 2075 ______O__P__P_ -1 -17.1000 88.3000 20 20 1009 1.00000 -17.0150 88.1424 TC 15 1008 -17.0150 88.1424 TC 15 1008 9 270
1974290S09089 1975 119 SI MM MARCIA 1974-10-24 12:00:00 TS -17.0000 87.7000 20 1009 bom main 2106 2106 ______O__O__O_ -1 -17.0000 87.7000 20 20 1009 1.00000 -17.0000 87.7000 TC 15 1009 -17.0000 87.7000 TC 15 1009 8 273
1974290S09089 1975 119 SI MM MARCIA 1974-10-24 15:00:00 TS -16.9998 87.3717 20 1009 bom main 2126 2126 ______O__P__P_ -1 -17.0000 87.4000 20 20 1009 1.00000 -16.9997 87.3575 TC 15 1009 -16.9997 87.3575 TC 15 1009 7 270
1974290S09089 1975 119 SI MM MARCIA 1974-10-24 18:00:00 TS -17.0000 87.0000 20 1010 bom main 2152 2152 ______O__O__O_ -1 -17.0000 87.0000 20 20 1010 1.00000 -17.0000 87.0000 TC 15 1010 -17.0000 87.0000 TC 15 1010 8 270
1974290S09089 1975 119 SI MM MARCIA 1974-10-24 21:00:00 TS -17.0003 86.5233 20 1010 bom main 2185 2185 ______O__P__P_ -1 -17.0000 86.5000 20 20 1010 1.00000 -17.0004 86.5350 TC 15 1010 -17.0004 86.5350 TC 15 1010 10 270
1974290S09089 1975 119 SI MM MARCIA 1974-10-25 00:00:00 TS -17.0000 86.0000 20 1010 bom main 2220 ______O__O__O_ -1 -17.0000 86.0000 20 20 1010 1.00000 -17.0000 86.0000 TC 15 1010 -17.0000 86.0000 TC 15 1010 10 270

About IBTrACS Database

This database is a web-friendly format of International Best Track Archive for Climate Stewardship (IBTrACS), a global best track data archive curated by NOAA dating back to 1842.

Updated: 2021-11-26